sensor_id;sensor_type;location;lat;lon;timestamp;P1;durP1;ratioP1;P2;durP2;ratioP2
27145;SDS011;17980;51.744;7.190;2024-03-17T00:01:08;0.50;;;0.23;;
27145;SDS011;17980;51.744;7.190;2024-03-17T00:03:35;1.37;;;0.63;;
27145;SDS011;17980;51.744;7.190;2024-03-17T00:06:02;0.20;;;0.20;;
27145;SDS011;17980;51.744;7.190;2024-03-17T00:08:30;0.13;;;0.13;;
27145;SDS011;17980;51.744;7.190;2024-03-17T00:11:07;0.30;;;0.30;;
27145;SDS011;17980;51.744;7.190;2024-03-17T00:13:34;0.73;;;0.50;;
27145;SDS011;17980;51.744;7.190;2024-03-17T00:16:02;0.20;;;0.20;;
27145;SDS011;17980;51.744;7.190;2024-03-17T00:18:30;0.30;;;0.20;;
27145;SDS011;17980;51.744;7.190;2024-03-17T00:21:07;0.43;;;0.43;;
27145;SDS011;17980;51.744;7.190;2024-03-17T00:23:35;1.03;;;0.50;;
27145;SDS011;17980;51.744;7.190;2024-03-17T00:26:03;1.80;;;0.50;;
27145;SDS011;17980;51.744;7.190;2024-03-17T00:28:34;0.50;;;0.50;;
27145;SDS011;17980;51.744;7.190;2024-03-17T00:31:11;0.93;;;0.30;;
27145;SDS011;17980;51.744;7.190;2024-03-17T00:33:40;0.40;;;0.33;;
27145;SDS011;17980;51.744;7.190;2024-03-17T00:36:08;0.67;;;0.50;;
27145;SDS011;17980;51.744;7.190;2024-03-17T00:38:35;0.97;;;0.40;;
27145;SDS011;17980;51.744;7.190;2024-03-17T00:41:12;0.40;;;0.40;;
27145;SDS011;17980;51.744;7.190;2024-03-17T00:43:39;0.50;;;0.40;;
27145;SDS011;17980;51.744;7.190;2024-03-17T00:46:07;1.77;;;0.83;;
27145;SDS011;17980;51.744;7.190;2024-03-17T00:48:34;0.60;;;0.60;;
27145;SDS011;17980;51.744;7.190;2024-03-17T00:51:11;0.30;;;0.30;;
27145;SDS011;17980;51.744;7.190;2024-03-17T00:53:39;1.50;;;0.73;;
27145;SDS011;17980;51.744;7.190;2024-03-17T00:56:06;0.00;;;0.00;;
27145;SDS011;17980;51.744;7.190;2024-03-17T00:58:33;0.30;;;0.30;;
27145;SDS011;17980;51.744;7.190;2024-03-17T01:01:14;0.20;;;0.20;;
27145;SDS011;17980;51.744;7.190;2024-03-17T01:03:42;1.03;;;0.33;;
27145;SDS011;17980;51.744;7.190;2024-03-17T01:06:09;0.27;;;0.20;;
27145;SDS011;17980;51.744;7.190;2024-03-17T01:08:36;0.20;;;0.20;;
27145;SDS011;17980;51.744;7.190;2024-03-17T01:11:14;0.40;;;0.20;;
27145;SDS011;17980;51.744;7.190;2024-03-17T01:13:44;0.20;;;0.20;;
27145;SDS011;17980;51.744;7.190;2024-03-17T01:16:12;0.33;;;0.27;;
27145;SDS011;17980;51.744;7.190;2024-03-17T01:18:39;0.10;;;0.10;;
27145;SDS011;17980;51.744;7.190;2024-03-17T01:21:16;0.30;;;0.10;;
27145;SDS011;17980;51.744;7.190;2024-03-17T01:23:43;0.30;;;0.20;;
27145;SDS011;17980;51.744;7.190;2024-03-17T01:26:10;0.10;;;0.10;;
27145;SDS011;17980;51.744;7.190;2024-03-17T01:28:38;2.87;;;0.17;;
27145;SDS011;17980;51.744;7.190;2024-03-17T01:31:21;3.87;;;0.13;;
27145;SDS011;17980;51.744;7.190;2024-03-17T01:33:49;0.27;;;0.10;;
27145;SDS011;17980;51.744;7.190;2024-03-17T01:36:16;0.20;;;0.20;;
27145;SDS011;17980;51.744;7.190;2024-03-17T01:38:43;0.20;;;0.20;;
27145;SDS011;17980;51.744;7.190;2024-03-17T01:41:20;1.80;;;1.13;;
27145;SDS011;17980;51.744;7.190;2024-03-17T01:43:48;0.90;;;0.10;;
27145;SDS011;17980;51.744;7.190;2024-03-17T01:46:16;0.30;;;0.20;;
27145;SDS011;17980;51.744;7.190;2024-03-17T01:48:44;0.20;;;0.13;;
27145;SDS011;17980;51.744;7.190;2024-03-17T01:51:12;0.27;;;0.27;;
27145;SDS011;17980;51.744;7.190;2024-03-17T01:53:50;0.20;;;0.20;;
27145;SDS011;17980;51.744;7.190;2024-03-17T01:56:17;1.60;;;0.20;;
27145;SDS011;17980;51.744;7.190;2024-03-17T01:58:46;0.30;;;0.30;;
27145;SDS011;17980;51.744;7.190;2024-03-17T02:01:14;0.23;;;0.10;;
27145;SDS011;17980;51.744;7.190;2024-03-17T02:03:51;0.10;;;0.10;;
27145;SDS011;17980;51.744;7.190;2024-03-17T02:06:18;0.10;;;0.10;;
27145;SDS011;17980;51.744;7.190;2024-03-17T02:08:49;0.37;;;0.37;;
27145;SDS011;17980;51.744;7.190;2024-03-17T02:11:24;0.20;;;0.20;;
27145;SDS011;17980;51.744;7.190;2024-03-17T02:14:01;0.53;;;0.33;;
27145;SDS011;17980;51.744;7.190;2024-03-17T02:16:29;0.30;;;0.30;;
27145;SDS011;17980;51.744;7.190;2024-03-17T02:18:56;0.40;;;0.40;;
27145;SDS011;17980;51.744;7.190;2024-03-17T02:21:24;0.33;;;0.33;;
27145;SDS011;17980;51.744;7.190;2024-03-17T02:24:02;0.57;;;0.17;;
27145;SDS011;17980;51.744;7.190;2024-03-17T02:26:29;3.73;;;0.47;;
27145;SDS011;17980;51.744;7.190;2024-03-17T02:28:56;0.30;;;0.30;;
27145;SDS011;17980;51.744;7.190;2024-03-17T02:31:24;0.73;;;0.20;;
27145;SDS011;17980;51.744;7.190;2024-03-17T02:34:01;0.17;;;0.17;;
27145;SDS011;17980;51.744;7.190;2024-03-17T02:36:28;0.87;;;0.40;;
27145;SDS011;17980;51.744;7.190;2024-03-17T02:38:55;0.10;;;0.10;;
27145;SDS011;17980;51.744;7.190;2024-03-17T02:41:42;0.73;;;0.20;;
27145;SDS011;17980;51.744;7.190;2024-03-17T02:44:19;0.13;;;0.13;;
27145;SDS011;17980;51.744;7.190;2024-03-17T02:46:46;0.20;;;0.20;;
27145;SDS011;17980;51.744;7.190;2024-03-17T02:49:14;0.73;;;0.30;;
27145;SDS011;17980;51.744;7.190;2024-03-17T02:51:43;0.43;;;0.20;;
27145;SDS011;17980;51.744;7.190;2024-03-17T02:54:20;0.13;;;0.13;;
27145;SDS011;17980;51.744;7.190;2024-03-17T02:56:48;0.10;;;0.10;;
27145;SDS011;17980;51.744;7.190;2024-03-17T02:59:15;1.03;;;0.30;;
27145;SDS011;17980;51.744;7.190;2024-03-17T03:01:52;0.53;;;0.20;;
27145;SDS011;17980;51.744;7.190;2024-03-17T03:04:20;0.33;;;0.20;;
27145;SDS011;17980;51.744;7.190;2024-03-17T03:06:57;0.80;;;0.30;;
27145;SDS011;17980;51.744;7.190;2024-03-17T03:09:24;0.83;;;0.20;;
27145;SDS011;17980;51.744;7.190;2024-03-17T03:11:57;0.40;;;0.30;;
27145;SDS011;17980;51.744;7.190;2024-03-17T03:14:34;0.60;;;0.40;;
27145;SDS011;17980;51.744;7.190;2024-03-17T03:17:02;0.57;;;0.30;;
27145;SDS011;17980;51.744;7.190;2024-03-17T03:19:29;0.73;;;0.40;;
27145;SDS011;17980;51.744;7.190;2024-03-17T03:22:12;0.10;;;0.10;;
27145;SDS011;17980;51.744;7.190;2024-03-17T03:24:40;0.07;;;0.07;;
27145;SDS011;17980;51.744;7.190;2024-03-17T03:27:07;0.20;;;0.20;;
27145;SDS011;17980;51.744;7.190;2024-03-17T03:29:35;0.20;;;0.20;;
27145;SDS011;17980;51.744;7.190;2024-03-17T03:32:12;0.93;;;0.23;;
27145;SDS011;17980;51.744;7.190;2024-03-17T03:34:39;0.53;;;0.20;;
27145;SDS011;17980;51.744;7.190;2024-03-17T03:37:07;0.20;;;0.20;;
27145;SDS011;17980;51.744;7.190;2024-03-17T03:39:35;0.20;;;0.20;;
27145;SDS011;17980;51.744;7.190;2024-03-17T03:42:12;0.33;;;0.33;;
27145;SDS011;17980;51.744;7.190;2024-03-17T03:44:39;1.13;;;0.30;;
27145;SDS011;17980;51.744;7.190;2024-03-17T03:47:07;3.07;;;1.07;;
27145;SDS011;17980;51.744;7.190;2024-03-17T03:49:34;0.60;;;0.43;;
27145;SDS011;17980;51.744;7.190;2024-03-17T03:52:11;0.60;;;0.13;;
27145;SDS011;17980;51.744;7.190;2024-03-17T03:54:38;0.63;;;0.60;;
27145;SDS011;17980;51.744;7.190;2024-03-17T03:57:06;0.40;;;0.40;;
27145;SDS011;17980;51.744;7.190;2024-03-17T03:59:33;0.57;;;0.40;;
27145;SDS011;17980;51.744;7.190;2024-03-17T04:02:10;0.30;;;0.30;;
27145;SDS011;17980;51.744;7.190;2024-03-17T04:04:37;1.33;;;0.50;;
27145;SDS011;17980;51.744;7.190;2024-03-17T04:07:04;0.83;;;0.30;;
27145;SDS011;17980;51.744;7.190;2024-03-17T04:09:34;0.90;;;0.50;;
27145;SDS011;17980;51.744;7.190;2024-03-17T04:12:11;0.97;;;0.87;;
27145;SDS011;17980;51.744;7.190;2024-03-17T04:14:38;0.40;;;0.30;;
27145;SDS011;17980;51.744;7.190;2024-03-17T04:17:05;0.53;;;0.40;;
27145;SDS011;17980;51.744;7.190;2024-03-17T04:19:33;0.33;;;0.33;;
27145;SDS011;17980;51.744;7.190;2024-03-17T04:22:10;0.53;;;0.53;;
27145;SDS011;17980;51.744;7.190;2024-03-17T04:24:37;1.43;;;0.33;;
27145;SDS011;17980;51.744;7.190;2024-03-17T04:27:05;0.57;;;0.33;;
27145;SDS011;17980;51.744;7.190;2024-03-17T04:29:32;0.30;;;0.27;;
27145;SDS011;17980;51.744;7.190;2024-03-17T04:32:09;0.47;;;0.30;;
27145;SDS011;17980;51.744;7.190;2024-03-17T04:34:37;0.20;;;0.20;;
27145;SDS011;17980;51.744;7.190;2024-03-17T04:37:04;0.10;;;0.10;;
27145;SDS011;17980;51.744;7.190;2024-03-17T04:39:32;0.20;;;0.20;;
27145;SDS011;17980;51.744;7.190;2024-03-17T04:42:09;0.40;;;0.37;;
27145;SDS011;17980;51.744;7.190;2024-03-17T04:44:36;0.30;;;0.30;;
27145;SDS011;17980;51.744;7.190;2024-03-17T04:47:03;0.50;;;0.40;;
27145;SDS011;17980;51.744;7.190;2024-03-17T04:49:32;0.30;;;0.27;;
27145;SDS011;17980;51.744;7.190;2024-03-17T04:52:11;0.23;;;0.20;;
27145;SDS011;17980;51.744;7.190;2024-03-17T04:54:39;0.30;;;0.27;;
27145;SDS011;17980;51.744;7.190;2024-03-17T04:57:08;0.50;;;0.37;;
27145;SDS011;17980;51.744;7.190;2024-03-17T04:59:36;0.67;;;0.30;;
27145;SDS011;17980;51.744;7.190;2024-03-17T05:02:13;0.17;;;0.13;;
27145;SDS011;17980;51.744;7.190;2024-03-17T05:04:40;0.13;;;0.13;;
27145;SDS011;17980;51.744;7.190;2024-03-17T05:07:17;0.43;;;0.30;;
27145;SDS011;17980;51.744;7.190;2024-03-17T05:09:44;1.53;;;0.73;;
27145;SDS011;17980;51.744;7.190;2024-03-17T05:12:21;0.30;;;0.20;;
27145;SDS011;17980;51.744;7.190;2024-03-17T05:14:49;0.30;;;0.30;;
27145;SDS011;17980;51.744;7.190;2024-03-17T05:17:16;0.13;;;0.10;;
27145;SDS011;17980;51.744;7.190;2024-03-17T05:19:53;0.13;;;0.13;;
27145;SDS011;17980;51.744;7.190;2024-03-17T05:22:20;0.83;;;0.27;;
27145;SDS011;17980;51.744;7.190;2024-03-17T05:24:57;0.30;;;0.20;;
27145;SDS011;17980;51.744;7.190;2024-03-17T05:27:24;0.10;;;0.10;;
27145;SDS011;17980;51.744;7.190;2024-03-17T05:30:01;0.40;;;0.33;;
27145;SDS011;17980;51.744;7.190;2024-03-17T05:32:30;0.40;;;0.40;;
27145;SDS011;17980;51.744;7.190;2024-03-17T05:35:10;0.37;;;0.30;;
27145;SDS011;17980;51.744;7.190;2024-03-17T05:37:38;0.50;;;0.30;;
27145;SDS011;17980;51.744;7.190;2024-03-17T05:40:07;0.20;;;0.20;;
27145;SDS011;17980;51.744;7.190;2024-03-17T05:42:46;3.00;;;0.23;;
27145;SDS011;17980;51.744;7.190;2024-03-17T05:45:14;0.30;;;0.30;;
27145;SDS011;17980;51.744;7.190;2024-03-17T05:47:53;3.50;;;0.40;;
27145;SDS011;17980;51.744;7.190;2024-03-17T05:53:23;0.60;;;0.40;;
27145;SDS011;17980;51.744;7.190;2024-03-17T05:55:51;0.97;;;0.47;;
27145;SDS011;17980;51.744;7.190;2024-03-17T05:58:18;0.20;;;0.20;;
27145;SDS011;17980;51.744;7.190;2024-03-17T06:00:55;0.27;;;0.27;;
27145;SDS011;17980;51.744;7.190;2024-03-17T06:03:24;0.10;;;0.10;;
27145;SDS011;17980;51.744;7.190;2024-03-17T06:06:01;1.17;;;0.40;;
27145;SDS011;17980;51.744;7.190;2024-03-17T06:08:29;0.50;;;0.50;;
27145;SDS011;17980;51.744;7.190;2024-03-17T06:11:06;0.40;;;0.40;;
27145;SDS011;17980;51.744;7.190;2024-03-17T06:13:34;0.30;;;0.30;;
27145;SDS011;17980;51.744;7.190;2024-03-17T06:16:02;0.70;;;0.33;;
27145;SDS011;17980;51.744;7.190;2024-03-17T06:18:40;0.50;;;0.50;;
27145;SDS011;17980;51.744;7.190;2024-03-17T06:21:07;0.73;;;0.40;;
27145;SDS011;17980;51.744;7.190;2024-03-17T06:23:35;1.53;;;0.53;;
27145;SDS011;17980;51.744;7.190;2024-03-17T06:26:02;0.93;;;0.50;;
27145;SDS011;17980;51.744;7.190;2024-03-17T06:31:07;0.43;;;0.30;;
27145;SDS011;17980;51.744;7.190;2024-03-17T06:33:36;1.00;;;0.80;;
27145;SDS011;17980;51.744;7.190;2024-03-17T06:36:04;0.43;;;0.33;;
27145;SDS011;17980;51.744;7.190;2024-03-17T06:38:32;0.20;;;0.20;;
27145;SDS011;17980;51.744;7.190;2024-03-17T06:41:09;1.73;;;0.80;;
27145;SDS011;17980;51.744;7.190;2024-03-17T06:43:38;0.40;;;0.40;;
27145;SDS011;17980;51.744;7.190;2024-03-17T06:46:05;1.47;;;0.50;;
27145;SDS011;17980;51.744;7.190;2024-03-17T06:48:33;0.30;;;0.30;;
27145;SDS011;17980;51.744;7.190;2024-03-17T06:51:10;1.00;;;0.63;;
27145;SDS011;17980;51.744;7.190;2024-03-17T06:53:37;1.40;;;0.97;;
27145;SDS011;17980;51.744;7.190;2024-03-17T06:56:05;1.47;;;0.50;;
27145;SDS011;17980;51.744;7.190;2024-03-17T06:58:33;0.60;;;0.60;;
27145;SDS011;17980;51.744;7.190;2024-03-17T07:01:16;0.93;;;0.80;;
27145;SDS011;17980;51.744;7.190;2024-03-17T07:03:45;3.23;;;0.70;;
27145;SDS011;17980;51.744;7.190;2024-03-17T07:06:12;1.33;;;0.57;;
27145;SDS011;17980;51.744;7.190;2024-03-17T07:08:40;0.87;;;0.40;;
27145;SDS011;17980;51.744;7.190;2024-03-17T07:11:16;0.30;;;0.20;;
27145;SDS011;17980;51.744;7.190;2024-03-17T07:16:20;0.30;;;0.27;;
27145;SDS011;17980;51.744;7.190;2024-03-17T07:18:50;0.53;;;0.50;;
27145;SDS011;17980;51.744;7.190;2024-03-17T07:21:26;0.50;;;0.30;;
27145;SDS011;17980;51.744;7.190;2024-03-17T07:23:54;0.70;;;0.70;;
27145;SDS011;17980;51.744;7.190;2024-03-17T07:26:21;0.97;;;0.43;;
27145;SDS011;17980;51.744;7.190;2024-03-17T07:28:49;2.00;;;0.97;;
27145;SDS011;17980;51.744;7.190;2024-03-17T07:31:26;1.47;;;0.60;;
27145;SDS011;17980;51.744;7.190;2024-03-17T07:33:53;1.00;;;0.70;;
27145;SDS011;17980;51.744;7.190;2024-03-17T07:36:20;0.97;;;0.70;;
27145;SDS011;17980;51.744;7.190;2024-03-17T07:38:48;0.50;;;0.50;;
27145;SDS011;17980;51.744;7.190;2024-03-17T07:41:25;8.47;;;0.50;;
27145;SDS011;17980;51.744;7.190;2024-03-17T07:43:52;0.73;;;0.63;;
27145;SDS011;17980;51.744;7.190;2024-03-17T07:46:20;1.47;;;0.50;;
27145;SDS011;17980;51.744;7.190;2024-03-17T07:48:47;1.87;;;0.87;;
27145;SDS011;17980;51.744;7.190;2024-03-17T07:51:25;1.13;;;0.93;;
27145;SDS011;17980;51.744;7.190;2024-03-17T07:53:53;1.03;;;0.50;;
27145;SDS011;17980;51.744;7.190;2024-03-17T07:56:20;1.13;;;0.70;;
27145;SDS011;17980;51.744;7.190;2024-03-17T07:58:47;0.60;;;0.60;;
27145;SDS011;17980;51.744;7.190;2024-03-17T08:01:24;2.50;;;0.73;;
27145;SDS011;17980;51.744;7.190;2024-03-17T08:03:52;0.90;;;0.70;;
27145;SDS011;17980;51.744;7.190;2024-03-17T08:06:21;1.07;;;0.83;;
27145;SDS011;17980;51.744;7.190;2024-03-17T08:08:50;1.00;;;0.50;;
27145;SDS011;17980;51.744;7.190;2024-03-17T08:11:27;1.30;;;0.67;;
27145;SDS011;17980;51.744;7.190;2024-03-17T08:13:54;1.97;;;1.00;;
27145;SDS011;17980;51.744;7.190;2024-03-17T08:16:21;1.70;;;0.80;;
27145;SDS011;17980;51.744;7.190;2024-03-17T08:18:49;1.17;;;0.50;;
27145;SDS011;17980;51.744;7.190;2024-03-17T08:21:25;1.80;;;0.63;;
27145;SDS011;17980;51.744;7.190;2024-03-17T08:23:55;1.93;;;0.70;;
27145;SDS011;17980;51.744;7.190;2024-03-17T08:26:22;1.37;;;0.77;;
27145;SDS011;17980;51.744;7.190;2024-03-17T08:28:49;0.73;;;0.70;;
27145;SDS011;17980;51.744;7.190;2024-03-17T08:31:26;0.87;;;0.60;;
27145;SDS011;17980;51.744;7.190;2024-03-17T08:33:54;1.00;;;0.93;;
27145;SDS011;17980;51.744;7.190;2024-03-17T08:36:21;1.40;;;1.10;;
27145;SDS011;17980;51.744;7.190;2024-03-17T08:38:48;1.00;;;0.90;;
27145;SDS011;17980;51.744;7.190;2024-03-17T08:41:25;1.03;;;0.83;;
27145;SDS011;17980;51.744;7.190;2024-03-17T08:43:53;1.13;;;1.03;;
27145;SDS011;17980;51.744;7.190;2024-03-17T08:46:20;1.40;;;1.00;;
27145;SDS011;17980;51.744;7.190;2024-03-17T08:48:48;0.83;;;0.80;;
27145;SDS011;17980;51.744;7.190;2024-03-17T08:51:25;1.20;;;1.10;;
27145;SDS011;17980;51.744;7.190;2024-03-17T08:53:53;1.20;;;0.80;;
27145;SDS011;17980;51.744;7.190;2024-03-17T08:56:20;1.90;;;1.20;;
27145;SDS011;17980;51.744;7.190;2024-03-17T08:58:49;0.87;;;0.87;;
27145;SDS011;17980;51.744;7.190;2024-03-17T09:01:25;1.77;;;1.07;;
27145;SDS011;17980;51.744;7.190;2024-03-17T09:03:53;1.77;;;0.90;;
27145;SDS011;17980;51.744;7.190;2024-03-17T09:06:22;1.30;;;1.17;;
27145;SDS011;17980;51.744;7.190;2024-03-17T09:08:50;1.70;;;0.80;;
27145;SDS011;17980;51.744;7.190;2024-03-17T09:11:27;2.03;;;1.40;;
27145;SDS011;17980;51.744;7.190;2024-03-17T09:13:55;2.40;;;1.10;;
27145;SDS011;17980;51.744;7.190;2024-03-17T09:16:24;1.50;;;1.03;;
27145;SDS011;17980;51.744;7.190;2024-03-17T09:18:54;3.40;;;1.20;;
27145;SDS011;17980;51.744;7.190;2024-03-17T09:21:32;1.07;;;0.77;;
27145;SDS011;17980;51.744;7.190;2024-03-17T09:24:00;2.10;;;1.17;;
27145;SDS011;17980;51.744;7.190;2024-03-17T09:26:29;1.10;;;1.00;;
27145;SDS011;17980;51.744;7.190;2024-03-17T09:28:56;1.17;;;1.07;;
27145;SDS011;17980;51.744;7.190;2024-03-17T09:31:33;3.80;;;1.23;;
27145;SDS011;17980;51.744;7.190;2024-03-17T09:34:01;1.00;;;0.90;;
27145;SDS011;17980;51.744;7.190;2024-03-17T09:36:28;1.47;;;1.10;;
27145;SDS011;17980;51.744;7.190;2024-03-17T09:38:56;1.97;;;0.90;;
27145;SDS011;17980;51.744;7.190;2024-03-17T09:41:34;2.17;;;0.83;;
27145;SDS011;17980;51.744;7.190;2024-03-17T09:44:02;1.93;;;0.90;;
27145;SDS011;17980;51.744;7.190;2024-03-17T09:46:31;1.63;;;0.90;;
27145;SDS011;17980;51.744;7.190;2024-03-17T09:49:00;1.10;;;0.93;;
27145;SDS011;17980;51.744;7.190;2024-03-17T09:51:27;0.70;;;0.70;;
27145;SDS011;17980;51.744;7.190;2024-03-17T09:53:55;1.80;;;0.90;;
27145;SDS011;17980;51.744;7.190;2024-03-17T09:56:32;1.13;;;0.87;;
27145;SDS011;17980;51.744;7.190;2024-03-17T09:59:02;1.27;;;1.17;;
27145;SDS011;17980;51.744;7.190;2024-03-17T10:01:39;0.93;;;0.83;;
27145;SDS011;17980;51.744;7.190;2024-03-17T10:04:08;0.97;;;0.80;;
27145;SDS011;17980;51.744;7.190;2024-03-17T10:06:45;3.20;;;0.93;;
27145;SDS011;17980;51.744;7.190;2024-03-17T10:09:15;3.23;;;1.27;;
27145;SDS011;17980;51.744;7.190;2024-03-17T10:11:47;1.17;;;0.87;;
27145;SDS011;17980;51.744;7.190;2024-03-17T10:14:16;1.00;;;0.70;;
27145;SDS011;17980;51.744;7.190;2024-03-17T10:16:53;1.20;;;0.73;;
27145;SDS011;17980;51.744;7.190;2024-03-17T10:19:22;1.10;;;1.00;;
27145;SDS011;17980;51.744;7.190;2024-03-17T10:21:50;2.17;;;1.10;;
27145;SDS011;17980;51.744;7.190;2024-03-17T10:24:40;1.60;;;0.80;;
27145;SDS011;17980;51.744;7.190;2024-03-17T10:27:07;1.07;;;0.80;;
27145;SDS011;17980;51.744;7.190;2024-03-17T10:29:37;0.60;;;0.60;;
27145;SDS011;17980;51.744;7.190;2024-03-17T10:32:14;1.10;;;0.70;;
27145;SDS011;17980;51.744;7.190;2024-03-17T10:34:42;1.17;;;0.80;;
27145;SDS011;17980;51.744;7.190;2024-03-17T10:37:20;0.70;;;0.70;;
27145;SDS011;17980;51.744;7.190;2024-03-17T10:39:50;2.10;;;0.97;;
27145;SDS011;17980;51.744;7.190;2024-03-17T10:42:22;1.43;;;0.80;;
27145;SDS011;17980;51.744;7.190;2024-03-17T10:44:59;1.00;;;0.80;;
27145;SDS011;17980;51.744;7.190;2024-03-17T10:47:27;0.93;;;0.67;;
27145;SDS011;17980;51.744;7.190;2024-03-17T10:50:05;0.70;;;0.70;;
27145;SDS011;17980;51.744;7.190;2024-03-17T10:52:36;0.40;;;0.33;;
27145;SDS011;17980;51.744;7.190;2024-03-17T10:55:08;0.60;;;0.60;;
27145;SDS011;17980;51.744;7.190;2024-03-17T10:57:46;1.90;;;0.83;;
27145;SDS011;17980;51.744;7.190;2024-03-17T11:00:15;0.73;;;0.70;;
27145;SDS011;17980;51.744;7.190;2024-03-17T11:02:45;1.00;;;0.70;;
27145;SDS011;17980;51.744;7.190;2024-03-17T11:07:50;3.13;;;0.93;;
27145;SDS011;17980;51.744;7.190;2024-03-17T11:10:21;1.37;;;1.03;;
27145;SDS011;17980;51.744;7.190;2024-03-17T11:12:50;1.33;;;0.60;;
27145;SDS011;17980;51.744;7.190;2024-03-17T11:18:32;0.60;;;0.60;;
27145;SDS011;17980;51.744;7.190;2024-03-17T11:21:04;0.50;;;0.30;;
27145;SDS011;17980;51.744;7.190;2024-03-17T11:23:38;0.60;;;0.60;;
27145;SDS011;17980;51.744;7.190;2024-03-17T11:26:18;0.37;;;0.30;;
27145;SDS011;17980;51.744;7.190;2024-03-17T11:28:50;1.30;;;0.70;;
27145;SDS011;17980;51.744;7.190;2024-03-17T11:34:34;0.87;;;0.67;;
27145;SDS011;17980;51.744;7.190;2024-03-17T11:40:23;0.50;;;0.50;;
27145;SDS011;17980;51.744;7.190;2024-03-17T11:43:00;0.50;;;0.50;;
27145;SDS011;17980;51.744;7.190;2024-03-17T11:45:30;0.70;;;0.60;;
27145;SDS011;17980;51.744;7.190;2024-03-17T11:48:07;0.40;;;0.40;;
27145;SDS011;17980;51.744;7.190;2024-03-17T11:50:39;1.03;;;0.40;;
27145;SDS011;17980;51.744;7.190;2024-03-17T11:53:07;0.60;;;0.60;;
27145;SDS011;17980;51.744;7.190;2024-03-17T11:55:37;0.70;;;0.70;;
27145;SDS011;17980;51.744;7.190;2024-03-17T11:58:14;1.20;;;0.70;;
27145;SDS011;17980;51.744;7.190;2024-03-17T12:00:42;0.47;;;0.40;;
27145;SDS011;17980;51.744;7.190;2024-03-17T12:03:11;0.40;;;0.40;;
27145;SDS011;17980;51.744;7.190;2024-03-17T12:05:48;0.77;;;0.70;;
27145;SDS011;17980;51.744;7.190;2024-03-17T12:08:18;0.93;;;0.60;;
27145;SDS011;17980;51.744;7.190;2024-03-17T12:10:47;0.37;;;0.37;;
27145;SDS011;17980;51.744;7.190;2024-03-17T12:13:15;2.50;;;0.60;;
27145;SDS011;17980;51.744;7.190;2024-03-17T12:15:42;0.30;;;0.30;;
27145;SDS011;17980;51.744;7.190;2024-03-17T12:18:20;0.60;;;0.53;;
27145;SDS011;17980;51.744;7.190;2024-03-17T12:20:49;0.90;;;0.47;;
27145;SDS011;17980;51.744;7.190;2024-03-17T12:23:16;0.70;;;0.70;;
27145;SDS011;17980;51.744;7.190;2024-03-17T12:25:47;0.80;;;0.60;;
27145;SDS011;17980;51.744;7.190;2024-03-17T12:28:24;1.37;;;0.57;;
27145;SDS011;17980;51.744;7.190;2024-03-17T12:30:51;1.13;;;0.80;;
27145;SDS011;17980;51.744;7.190;2024-03-17T12:33:19;0.37;;;0.37;;
27145;SDS011;17980;51.744;7.190;2024-03-17T12:35:57;0.70;;;0.60;;
27145;SDS011;17980;51.744;7.190;2024-03-17T12:38:26;2.40;;;0.83;;
27145;SDS011;17980;51.744;7.190;2024-03-17T12:40:54;0.40;;;0.40;;
27145;SDS011;17980;51.744;7.190;2024-03-17T12:43:21;0.30;;;0.30;;
27145;SDS011;17980;51.744;7.190;2024-03-17T12:45:59;0.73;;;0.73;;
27145;SDS011;17980;51.744;7.190;2024-03-17T12:48:27;1.63;;;0.50;;
27145;SDS011;17980;51.744;7.190;2024-03-17T12:50:54;0.80;;;0.40;;
27145;SDS011;17980;51.744;7.190;2024-03-17T12:53:22;1.30;;;0.63;;
27145;SDS011;17980;51.744;7.190;2024-03-17T12:55:59;2.10;;;0.90;;
27145;SDS011;17980;51.744;7.190;2024-03-17T12:58:44;0.67;;;0.50;;
27145;SDS011;17980;51.744;7.190;2024-03-17T13:04:22;0.93;;;0.50;;
27145;SDS011;17980;51.744;7.190;2024-03-17T13:06:50;1.77;;;0.67;;
27145;SDS011;17980;51.744;7.190;2024-03-17T13:09:27;2.43;;;0.90;;
27145;SDS011;17980;51.744;7.190;2024-03-17T13:11:55;1.73;;;1.03;;
27145;SDS011;17980;51.744;7.190;2024-03-17T13:14:22;1.23;;;0.60;;
27145;SDS011;17980;51.744;7.190;2024-03-17T13:16:59;0.57;;;0.40;;
27145;SDS011;17980;51.744;7.190;2024-03-17T13:19:26;0.67;;;0.60;;
27145;SDS011;17980;51.744;7.190;2024-03-17T13:21:53;0.57;;;0.50;;
27145;SDS011;17980;51.744;7.190;2024-03-17T13:24:21;0.83;;;0.67;;
27145;SDS011;17980;51.744;7.190;2024-03-17T13:26:58;1.10;;;0.67;;
27145;SDS011;17980;51.744;7.190;2024-03-17T13:29:27;0.80;;;0.60;;
27145;SDS011;17980;51.744;7.190;2024-03-17T13:32:04;0.40;;;0.40;;
27145;SDS011;17980;51.744;7.190;2024-03-17T13:34:32;0.53;;;0.50;;
27145;SDS011;17980;51.744;7.190;2024-03-17T13:37:09;0.80;;;0.40;;
27145;SDS011;17980;51.744;7.190;2024-03-17T13:39:37;0.50;;;0.50;;
27145;SDS011;17980;51.744;7.190;2024-03-17T13:42:05;0.30;;;0.30;;
27145;SDS011;17980;51.744;7.190;2024-03-17T13:44:34;0.43;;;0.40;;
27145;SDS011;17980;51.744;7.190;2024-03-17T13:47:11;0.40;;;0.30;;
27145;SDS011;17980;51.744;7.190;2024-03-17T13:49:40;0.30;;;0.30;;
27145;SDS011;17980;51.744;7.190;2024-03-17T13:52:17;0.80;;;0.37;;
27145;SDS011;17980;51.744;7.190;2024-03-17T13:54:45;0.30;;;0.30;;
27145;SDS011;17980;51.744;7.190;2024-03-17T13:57:25;0.30;;;0.30;;
27145;SDS011;17980;51.744;7.190;2024-03-17T13:59:52;0.20;;;0.20;;
27145;SDS011;17980;51.744;7.190;2024-03-17T14:02:20;1.03;;;0.40;;
27145;SDS011;17980;51.744;7.190;2024-03-17T14:04:48;0.20;;;0.20;;
27145;SDS011;17980;51.744;7.190;2024-03-17T14:07:25;0.40;;;0.40;;
27145;SDS011;17980;51.744;7.190;2024-03-17T14:09:53;1.57;;;0.40;;
27145;SDS011;17980;51.744;7.190;2024-03-17T14:12:20;1.53;;;0.50;;
27145;SDS011;17980;51.744;7.190;2024-03-17T14:14:48;0.20;;;0.20;;
27145;SDS011;17980;51.744;7.190;2024-03-17T14:17:30;0.40;;;0.40;;
27145;SDS011;17980;51.744;7.190;2024-03-17T14:19:58;0.20;;;0.20;;
27145;SDS011;17980;51.744;7.190;2024-03-17T14:22:26;0.20;;;0.20;;
27145;SDS011;17980;51.744;7.190;2024-03-17T14:24:53;0.30;;;0.30;;
27145;SDS011;17980;51.744;7.190;2024-03-17T14:27:30;0.80;;;0.40;;
27145;SDS011;17980;51.744;7.190;2024-03-17T14:29:57;0.40;;;0.30;;
27145;SDS011;17980;51.744;7.190;2024-03-17T14:32:34;0.10;;;0.10;;
27145;SDS011;17980;51.744;7.190;2024-03-17T14:35:02;0.97;;;0.37;;
27145;SDS011;17980;51.744;7.190;2024-03-17T14:37:40;1.30;;;0.73;;
27145;SDS011;17980;51.744;7.190;2024-03-17T14:40:08;0.97;;;0.40;;
27145;SDS011;17980;51.744;7.190;2024-03-17T14:42:40;1.33;;;0.50;;
27145;SDS011;17980;51.744;7.190;2024-03-17T14:45:17;0.57;;;0.30;;
27145;SDS011;17980;51.744;7.190;2024-03-17T14:47:45;0.20;;;0.20;;
27145;SDS011;17980;51.744;7.190;2024-03-17T14:50:22;0.50;;;0.30;;
27145;SDS011;17980;51.744;7.190;2024-03-17T14:52:49;0.20;;;0.20;;
27145;SDS011;17980;51.744;7.190;2024-03-17T14:55:17;0.30;;;0.30;;
27145;SDS011;17980;51.744;7.190;2024-03-17T14:57:54;0.47;;;0.47;;
27145;SDS011;17980;51.744;7.190;2024-03-17T15:00:21;0.90;;;0.47;;
27145;SDS011;17980;51.744;7.190;2024-03-17T15:02:50;0.30;;;0.30;;
27145;SDS011;17980;51.744;7.190;2024-03-17T15:05:18;0.50;;;0.23;;
27145;SDS011;17980;51.744;7.190;2024-03-17T15:07:55;0.30;;;0.30;;
27145;SDS011;17980;51.744;7.190;2024-03-17T15:10:23;0.30;;;0.30;;
27145;SDS011;17980;51.744;7.190;2024-03-17T15:13:00;0.30;;;0.30;;
27145;SDS011;17980;51.744;7.190;2024-03-17T15:15:28;0.90;;;0.37;;
27145;SDS011;17980;51.744;7.190;2024-03-17T15:18:05;0.30;;;0.30;;
27145;SDS011;17980;51.744;7.190;2024-03-17T15:20:33;0.40;;;0.40;;
27145;SDS011;17980;51.744;7.190;2024-03-17T15:23:01;0.60;;;0.60;;
27145;SDS011;17980;51.744;7.190;2024-03-17T15:25:30;0.63;;;0.60;;
27145;SDS011;17980;51.744;7.190;2024-03-17T15:28:07;0.30;;;0.30;;
27145;SDS011;17980;51.744;7.190;2024-03-17T15:30:36;0.37;;;0.37;;
27145;SDS011;17980;51.744;7.190;2024-03-17T15:33:13;0.30;;;0.30;;